Time;durP1;ratioP1;P1;durP2;ratioP2;P2;SDS_P1;SDS_P2;PMS_P1;PMS_P2;Temp;Humidity;BMP_temperature;BMP_pressure;BME280_temperature;BME280_humidity;BME280_pressure;Samples;Min_cycle;Max_cycle;Signal;HPM_P1;HPM_P2
2021/07/28 00:00:14;;;;;;;39.03;21.35;;;17.00;99.90;;;;;;4944000;29;20031;-78
2021/07/28 00:02:42;;;;;;;37.20;21.15;;;17.00;99.90;;;;;;4954732;28;20063;-78
2021/07/28 00:05:09;;;;;;;42.45;22.48;;;17.00;99.90;;;;;;4954885;29;20036;-78
2021/07/28 00:07:35;;;;;;;37.83;20.85;;;17.10;99.90;;;;;;4955304;28;20059;-78
2021/07/28 00:10:02;;;;;;;37.78;20.05;;;17.10;99.90;;;;;;4953587;29;20400;-78
2021/07/28 00:12:28;;;;;;;37.90;19.02;;;17.00;99.90;;;;;;4953156;29;20354;-79
2021/07/28 00:14:55;;;;;;;38.13;19.02;;;16.90;99.90;;;;;;4952707;29;20028;-81
2021/07/28 00:17:21;;;;;;;37.97;20.10;;;16.80;99.90;;;;;;4954056;29;20458;-78
2021/07/28 00:24:58;;;;;;;41.38;20.70;;;16.90;99.90;;;;;;4953296;29;20043;-78
2021/07/28 00:27:24;;;;;;;40.75;20.15;;;16.90;99.90;;;;;;4968055;28;20523;-78
2021/07/28 00:29:50;;;;;;;41.58;23.40;;;17.00;99.90;;;;;;4953408;29;20043;-79
2021/07/28 00:32:16;;;;;;;50.38;25.55;;;17.00;99.90;;;;;;4952132;29;20397;-78
2021/07/28 00:34:43;;;;;;;48.35;25.13;;;17.00;99.90;;;;;;4953314;29;20035;-78
2021/07/28 00:37:10;;;;;;;56.40;25.50;;;17.00;99.90;;;;;;4953668;29;20039;-78
2021/07/28 00:39:36;;;;;;;47.58;23.65;;;17.00;99.90;;;;;;4952418;28;20043;-78
2021/07/28 00:42:03;;;;;;;52.92;24.50;;;16.90;99.90;;;;;;4953093;29;20054;-78
2021/07/28 00:44:29;;;;;;;51.63;25.00;;;16.90;99.90;;;;;;4953133;28;20046;-78
2021/07/28 00:46:55;;;;;;;48.33;23.95;;;16.80;99.90;;;;;;4952476;29;20042;-79
2021/07/28 00:49:23;;;;;;;49.15;23.73;;;16.70;99.90;;;;;;4953140;29;20038;-77
2021/07/28 00:51:51;;;;;;;55.22;25.08;;;16.70;99.90;;;;;;4966907;28;20047;-77
2021/07/28 00:54:17;;;;;;;60.72;26.58;;;16.80;99.90;;;;;;4952474;29;20057;-77
2021/07/28 00:56:44;;;;;;;61.45;28.85;;;16.90;99.90;;;;;;4952174;29;20034;-78
2021/07/28 00:59:10;;;;;;;62.67;29.08;;;16.90;99.90;;;;;;4952668;29;20047;-78
2021/07/28 01:01:37;;;;;;;56.53;27.00;;;16.80;99.90;;;;;;4953005;29;20036;-77
2021/07/28 01:04:03;;;;;;;56.20;27.65;;;16.90;99.90;;;;;;4951521;28;20030;-78
2021/07/28 01:06:31;;;;;;;56.20;28.50;;;16.90;99.90;;;;;;4953382;29;20027;-78
2021/07/28 01:08:57;;;;;;;56.35;26.98;;;16.90;99.90;;;;;;4952333;29;20055;-79
2021/07/28 01:11:27;;;;;;;57.15;28.05;;;16.90;99.90;;;;;;4953087;29;20031;-77
2021/07/28 01:13:55;;;;;;;65.18;29.02;;;16.90;99.90;;;;;;4953152;29;20038;-76
2021/07/28 01:16:25;;;;;;;70.15;32.05;;;17.00;99.90;;;;;;4944387;29;20051;-75
2021/07/28 01:18:52;;;;;;;73.47;32.40;;;17.00;99.90;;;;;;4952519;29;20047;-75
2021/07/28 01:21:20;;;;;;;76.75;35.58;;;17.00;99.90;;;;;;4952017;28;20054;-75
2021/07/28 01:23:48;;;;;;;86.03;37.53;;;17.10;99.90;;;;;;4951674;29;20034;-75
2021/07/28 01:26:15;;;;;;;82.70;35.42;;;17.10;99.90;;;;;;4952466;29;20042;-75
2021/07/28 01:28:41;;;;;;;80.47;37.15;;;17.10;99.90;;;;;;4953550;28;20063;-75
2021/07/28 01:31:10;;;;;;;80.00;36.97;;;17.00;99.90;;;;;;4952312;29;20042;-75
2021/07/28 01:33:41;;;;;;;76.80;36.97;;;17.00;99.90;;;;;;4952435;29;20039;-75
2021/07/28 01:36:21;;;;;;;74.35;36.78;;;16.90;99.90;;;;;;4967001;28;20046;-75
2021/07/28 01:38:49;;;;;;;77.75;34.47;;;16.90;99.90;;;;;;4955026;28;20043;-75
2021/07/28 01:41:15;;;;;;;73.85;36.67;;;16.80;99.90;;;;;;4955119;28;20035;-76
2021/07/28 01:43:42;;;;;;;83.32;36.35;;;16.70;99.90;;;;;;4955414;29;20038;-76
2021/07/28 01:46:09;;;;;;;86.10;37.03;;;16.70;99.90;;;;;;4955697;29;20035;-76
2021/07/28 01:48:35;;;;;;;89.55;40.00;;;16.60;99.90;;;;;;4956467;29;20046;-75
2021/07/28 01:51:02;;;;;;;77.93;36.58;;;16.60;99.90;;;;;;4956104;29;20384;-76
2021/07/28 01:53:29;;;;;;;98.60;41.47;;;16.60;99.90;;;;;;4956444;29;20039;-77
2021/07/28 01:55:57;;;;;;;80.03;39.33;;;16.60;99.90;;;;;;4956158;29;20042;-74
2021/07/28 01:58:23;;;;;;;80.20;38.33;;;16.50;99.90;;;;;;4954592;29;20152;-76
2021/07/28 02:00:49;;;;;;;82.32;37.45;;;16.50;99.90;;;;;;4956274;29;20040;-76
2021/07/28 02:03:16;;;;;;;77.68;35.90;;;16.50;99.90;;;;;;4955439;29;20039;-76
2021/07/28 02:05:43;;;;;;;75.05;34.22;;;16.40;99.90;;;;;;4955427;28;20055;-75
2021/07/28 02:08:12;;;;;;;74.70;33.28;;;16.40;99.90;;;;;;4952221;29;20397;-75
2021/07/28 02:10:44;;;;;;;64.93;31.88;;;16.40;99.90;;;;;;4949647;29;20038;-76
2021/07/28 02:13:10;;;;;;;70.18;32.85;;;16.40;99.90;;;;;;4954754;29;20062;-77
2021/07/28 02:15:37;;;;;;;74.95;33.00;;;16.40;99.90;;;;;;4956588;29;20035;-76
2021/07/28 02:18:05;;;;;;;76.05;33.22;;;16.50;99.90;;;;;;4956743;29;20030;-76
2021/07/28 02:20:32;;;;;;;66.93;32.85;;;16.40;99.90;;;;;;4957307;29;20046;-76
2021/07/28 02:22:59;;;;;;;68.03;33.55;;;16.40;99.90;;;;;;4956553;28;20047;-77
2021/07/28 02:25:26;;;;;;;72.78;35.20;;;16.40;99.90;;;;;;4955011;29;20046;-77
2021/07/28 02:27:52;;;;;;;71.90;34.58;;;16.40;99.90;;;;;;4946969;29;20043;-76
2021/07/28 02:30:19;;;;;;;70.03;34.65;;;16.30;99.90;;;;;;4945217;29;20058;-77
2021/07/28 02:32:47;;;;;;;74.18;34.25;;;16.30;99.90;;;;;;4953448;29;20042;-76
2021/07/28 02:35:14;;;;;;;90.72;37.97;;;16.40;99.90;;;;;;4955298;29;20035;-75
2021/07/28 02:37:42;;;;;;;87.38;36.92;;;16.40;99.90;;;;;;4954397;29;20031;-76
2021/07/28 02:40:11;;;;;;;91.88;39.80;;;16.40;99.90;;;;;;4954438;29;20038;-76
2021/07/28 02:42:37;;;;;;;99.78;41.25;;;16.40;99.90;;;;;;4954157;29;20023;-76
2021/07/28 02:45:04;;;;;;;104.13;43.20;;;16.40;99.90;;;;;;4955303;29;20035;-76
2021/07/28 02:47:31;;;;;;;104.47;42.03;;;16.40;99.90;;;;;;4955318;29;20123;-75
2021/07/28 02:49:57;;;;;;;104.43;42.75;;;16.40;99.90;;;;;;4955509;28;20027;-76
2021/07/28 02:52:23;;;;;;;103.50;42.40;;;16.40;99.90;;;;;;4954333;28;20461;-75
2021/07/28 02:54:49;;;;;;;110.55;45.25;;;16.30;99.90;;;;;;4969716;28;20054;-76
2021/07/28 02:57:16;;;;;;;113.03;45.22;;;16.40;99.90;;;;;;4955363;29;20134;-77
2021/07/28 02:59:42;;;;;;;111.82;43.28;;;16.40;99.90;;;;;;4954817;29;20413;-76
2021/07/28 03:02:08;;;;;;;112.05;44.00;;;16.30;99.90;;;;;;4954571;29;20035;-77
2021/07/28 03:04:35;;;;;;;114.88;45.72;;;16.30;99.90;;;;;;4955011;29;20409;-76
2021/07/28 03:07:01;;;;;;;117.90;44.13;;;16.30;99.90;;;;;;4953430;29;20039;-77
2021/07/28 03:09:27;;;;;;;117.82;44.78;;;16.30;99.90;;;;;;4954880;29;20035;-76
2021/07/28 03:11:54;;;;;;;118.18;45.28;;;16.20;99.90;;;;;;4954902;29;20050;-76
2021/07/28 03:14:20;;;;;;;120.30;46.60;;;16.20;99.90;;;;;;4954594;29;20023;-76
2021/07/28 03:16:46;;;;;;;116.43;45.33;;;16.10;99.90;;;;;;4953550;28;20405;-76
2021/07/28 03:19:12;;;;;;;130.98;46.38;;;16.10;99.90;;;;;;4954350;28;20051;-76
2021/07/28 03:21:38;;;;;;;112.80;44.72;;;16.10;99.90;;;;;;4953344;29;20046;-76
2021/07/28 03:24:05;;;;;;;108.50;46.30;;;16.10;99.90;;;;;;4954012;29;20035;-76
2021/07/28 03:26:31;;;;;;;132.25;47.13;;;16.10;99.90;;;;;;4954633;29;20027;-76
2021/07/28 03:28:57;;;;;;;114.65;47.30;;;16.10;99.90;;;;;;4954325;29;20409;-75
2021/07/28 03:31:23;;;;;;;120.43;45.85;;;16.10;99.90;;;;;;4952215;29;20046;-76
2021/07/28 03:33:50;;;;;;;121.10;45.88;;;16.10;99.90;;;;;;4954383;29;20381;-76
2021/07/28 03:36:16;;;;;;;122.78;48.83;;;16.10;99.90;;;;;;4953467;28;20041;-76
2021/07/28 03:38:42;;;;;;;127.40;48.40;;;16.10;99.90;;;;;;4954400;29;20035;-76
2021/07/28 03:41:08;;;;;;;116.15;46.03;;;16.10;99.90;;;;;;4953183;29;20496;-76
2021/07/28 03:43:34;;;;;;;109.50;45.53;;;16.00;99.90;;;;;;4954610;29;20038;-76
2021/07/28 03:46:00;;;;;;;131.20;47.35;;;16.00;99.90;;;;;;4955095;29;20058;-78
2021/07/28 03:48:30;;;;;;;129.23;46.85;;;16.00;99.90;;;;;;4953131;29;20046;-76
2021/07/28 03:50:58;;;;;;;134.65;47.05;;;16.00;99.90;;;;;;4954187;29;20038;-76
2021/07/28 03:53:24;;;;;;;116.15;45.53;;;16.00;99.90;;;;;;4952659;28;20040;-76
2021/07/28 03:55:51;;;;;;;120.25;46.08;;;16.00;99.90;;;;;;4968581;28;20039;-76
2021/07/28 03:58:18;;;;;;;120.80;43.83;;;15.90;99.90;;;;;;4966089;28;20039;-76
2021/07/28 04:00:44;;;;;;;110.55;45.05;;;15.90;99.90;;;;;;4953484;28;20046;-76
2021/07/28 04:03:10;;;;;;;118.80;45.72;;;15.90;99.90;;;;;;4952480;29;20517;-76
2021/07/28 04:05:36;;;;;;;115.70;47.97;;;15.90;99.90;;;;;;4953832;29;20038;-76
2021/07/28 04:08:03;;;;;;;111.22;45.38;;;15.90;99.90;;;;;;4953094;29;20043;-76
2021/07/28 04:10:30;;;;;;;123.35;45.90;;;16.00;99.90;;;;;;4953785;29;20130;-76
2021/07/28 04:12:56;;;;;;;119.60;46.85;;;16.00;99.90;;;;;;4952568;29;20388;-76
2021/07/28 04:15:22;;;;;;;118.13;46.55;;;16.00;99.90;;;;;;4953667;29;20035;-76
2021/07/28 04:17:49;;;;;;;102.57;43.05;;;16.00;99.90;;;;;;4953810;28;20062;-75
2021/07/28 04:20:16;;;;;;;104.72;43.80;;;16.00;99.90;;;;;;4953006;29;20054;-75
2021/07/28 04:22:42;;;;;;;117.35;41.97;;;16.00;99.90;;;;;;4952144;29;20046;-75
2021/07/28 04:25:10;;;;;;;96.30;41.10;;;16.10;99.90;;;;;;4951855;28;20165;-75
2021/07/28 04:27:37;;;;;;;106.70;45.10;;;16.10;99.90;;;;;;4954991;28;20043;-77
2021/07/28 04:30:05;;;;;;;103.20;44.25;;;16.10;99.90;;;;;;4951979;29;20043;-76
2021/07/28 04:32:31;;;;;;;88.30;40.80;;;16.20;99.90;;;;;;4964604;28;20043;-76
2021/07/28 04:34:57;;;;;;;93.00;44.03;;;16.20;99.90;;;;;;4947254;28;20506;-76
2021/07/28 04:37:25;;;;;;;90.88;41.28;;;16.30;99.90;;;;;;4951327;28;20055;-76
2021/07/28 04:39:51;;;;;;;81.88;39.42;;;16.30;99.90;;;;;;4952375;29;20035;-76
2021/07/28 04:42:17;;;;;;;68.30;35.72;;;16.30;99.90;;;;;;4952615;29;20027;-74
2021/07/28 04:44:43;;;;;;;64.47;32.85;;;16.40;99.90;;;;;;4968008;28;20042;-76
2021/07/28 04:47:10;;;;;;;61.17;32.92;;;16.40;99.90;;;;;;4951797;28;20031;-77
2021/07/28 04:49:36;;;;;;;55.67;32.15;;;16.80;99.90;;;;;;4954679;28;20055;-76
2021/07/28 04:52:02;;;;;;;41.50;26.95;;;17.10;99.90;;;;;;4953265;29;20493;-78
2021/07/28 04:54:28;;;;;;;39.17;24.05;;;17.00;99.90;;;;;;4951846;28;20482;-77
2021/07/28 04:56:55;;;;;;;37.88;25.23;;;17.10;99.90;;;;;;4967951;28;20612;-76
2021/07/28 04:59:21;;;;;;;32.83;23.83;;;17.20;99.90;;;;;;4951960;29;20164;-77
2021/07/28 05:01:47;;;;;;;33.13;24.55;;;17.50;99.90;;;;;;4952827;29;20488;-75
2021/07/28 05:04:13;;;;;;;29.45;21.63;;;18.10;99.90;;;;;;4952555;29;20040;-76
2021/07/28 05:06:41;;;;;;;21.92;19.15;;;18.30;99.90;;;;;;4953267;29;20473;-76
2021/07/28 05:09:12;;;;;;;17.92;16.23;;;18.30;99.90;;;;;;4952247;29;20043;-76
2021/07/28 05:11:38;;;;;;;16.63;14.82;;;17.90;99.90;;;;;;4945355;28;20038;-75
2021/07/28 05:14:05;;;;;;;17.08;15.05;;;17.70;99.90;;;;;;4951774;28;20031;-75
2021/07/28 05:16:31;;;;;;;15.75;14.07;;;17.40;99.90;;;;;;4951510;29;20462;-75
2021/07/28 05:18:57;;;;;;;17.05;14.68;;;17.30;99.90;;;;;;4950325;29;20143;-76
2021/07/28 05:21:25;;;;;;;19.33;15.70;;;17.30;99.90;;;;;;4951874;29;20062;-76
2021/07/28 05:23:51;;;;;;;21.70;17.05;;;17.30;99.90;;;;;;4951893;29;20038;-75
2021/07/28 05:26:17;;;;;;;22.77;17.17;;;17.30;99.90;;;;;;4952421;28;20051;-75
2021/07/28 05:28:43;;;;;;;20.17;17.33;;;17.20;99.90;;;;;;4952568;29;20053;-76
2021/07/28 05:31:09;;;;;;;25.75;16.60;;;17.30;99.90;;;;;;4952385;29;20042;-75
2021/07/28 05:33:36;;;;;;;18.67;16.77;;;17.30;99.90;;;;;;4952698;29;20035;-76
2021/07/28 05:36:02;;;;;;;21.13;15.82;;;17.30;99.90;;;;;;4952877;29;20453;-75
2021/07/28 05:38:28;;;;;;;22.08;16.90;;;17.30;99.90;;;;;;4952369;28;20466;-75
2021/07/28 05:40:55;;;;;;;19.80;16.23;;;17.30;99.90;;;;;;4952580;29;20043;-76
2021/07/28 05:43:25;;;;;;;17.40;15.13;;;17.30;99.90;;;;;;4951537;28;20058;-76
2021/07/28 05:45:51;;;;;;;20.92;16.25;;;17.40;99.90;;;;;;4952703;29;20426;-76
2021/07/28 05:48:17;;;;;;;19.30;15.82;;;17.40;99.90;;;;;;4949613;28;20413;-75
2021/07/28 05:50:44;;;;;;;18.75;14.98;;;17.30;99.90;;;;;;4950304;29;20043;-75
2021/07/28 05:53:10;;;;;;;21.45;16.65;;;17.30;99.90;;;;;;4950044;28;20046;-75
2021/07/28 05:55:36;;;;;;;19.90;16.20;;;17.20;99.90;;;;;;4950993;29;20024;-75
2021/07/28 05:58:02;;;;;;;19.25;15.95;;;17.20;99.90;;;;;;4949928;29;20062;-75
2021/07/28 06:00:29;;;;;;;20.88;15.57;;;17.20;99.90;;;;;;4952344;29;20350;-75
2021/07/28 06:02:55;;;;;;;19.40;15.43;;;17.20;99.90;;;;;;4952550;29;20381;-75
2021/07/28 06:05:21;;;;;;;18.52;14.52;;;17.10;99.90;;;;;;4965723;28;20516;-76
2021/07/28 06:07:49;;;;;;;14.65;12.95;;;17.10;99.90;;;;;;4962404;28;20051;-76
2021/07/28 06:10:15;;;;;;;19.85;14.43;;;17.00;99.90;;;;;;4952037;29;20397;-75
2021/07/28 06:12:42;;;;;;;14.05;12.43;;;17.10;99.90;;;;;;4951006;28;20047;-75
2021/07/28 06:15:08;;;;;;;14.90;13.30;;;17.00;99.90;;;;;;4951730;29;20031;-76
2021/07/28 06:17:35;;;;;;;15.90;14.00;;;17.00;99.90;;;;;;4950923;29;20407;-76
2021/07/28 06:20:01;;;;;;;17.70;13.77;;;17.20;99.90;;;;;;4952893;28;20046;-76
2021/07/28 06:22:27;;;;;;;20.42;13.25;;;17.20;99.90;;;;;;4952086;29;20039;-77
2021/07/28 06:24:54;;;;;;;14.93;13.18;;;17.20;99.90;;;;;;4953912;28;20485;-77
2021/07/28 06:27:20;;;;;;;14.60;12.85;;;17.30;99.90;;;;;;4947003;29;20097;-77
2021/07/28 06:29:47;;;;;;;16.30;13.13;;;17.30;99.90;;;;;;4967780;28;20058;-78
2021/07/28 06:32:13;;;;;;;14.85;12.02;;;17.30;99.90;;;;;;4955359;29;20034;-75
2021/07/28 06:34:39;;;;;;;15.52;11.93;;;17.20;99.90;;;;;;4946034;29;20469;-75
2021/07/28 06:37:08;;;;;;;15.40;13.38;;;17.20;99.90;;;;;;4946440;29;20127;-77
2021/07/28 06:39:35;;;;;;;16.73;12.80;;;17.20;99.90;;;;;;4954118;29;20362;-76
2021/07/28 06:42:01;;;;;;;18.40;13.40;;;17.30;99.90;;;;;;4954749;29;20035;-77
2021/07/28 06:44:27;;;;;;;17.92;13.70;;;17.40;99.90;;;;;;4954753;29;20023;-76
2021/07/28 06:46:53;;;;;;;15.65;11.73;;;17.40;99.90;;;;;;4955886;29;20046;-76
2021/07/28 06:49:20;;;;;;;14.45;12.98;;;17.50;99.90;;;;;;4955804;29;20043;-75
2021/07/28 06:51:46;;;;;;;13.60;11.30;;;17.50;99.90;;;;;;4950168;28;20043;-76
2021/07/28 06:54:12;;;;;;;14.48;12.35;;;17.50;99.90;;;;;;4942605;29;20055;-75
2021/07/28 06:56:38;;;;;;;12.02;10.75;;;17.40;99.90;;;;;;4955388;29;20485;-76
2021/07/28 06:59:04;;;;;;;13.68;11.85;;;17.40;99.90;;;;;;4944571;28;20525;-77
2021/07/28 07:01:31;;;;;;;14.13;11.70;;;17.50;99.90;;;;;;4953667;29;20039;-76
2021/07/28 07:03:57;;;;;;;16.02;11.68;;;17.50;99.90;;;;;;4969680;28;20058;-76
2021/07/28 07:06:24;;;;;;;15.35;9.68;;;17.40;99.90;;;;;;4954732;28;20043;-75
2021/07/28 07:08:50;;;;;;;12.82;10.80;;;17.30;99.90;;;;;;4954857;29;20045;-76
2021/07/28 07:11:16;;;;;;;11.70;10.27;;;17.30;99.90;;;;;;4954307;29;20472;-77
2021/07/28 07:13:42;;;;;;;12.43;10.90;;;17.30;99.90;;;;;;4955091;29;20373;-77
2021/07/28 07:16:09;;;;;;;13.73;11.32;;;17.40;99.90;;;;;;4954399;29;20031;-73
2021/07/28 07:18:35;;;;;;;16.30;11.90;;;17.40;99.90;;;;;;4954102;29;20462;-76
2021/07/28 07:21:01;;;;;;;15.52;11.60;;;17.50;99.90;;;;;;4955409;28;20058;-75
2021/07/28 07:23:27;;;;;;;13.38;11.43;;;17.50;99.90;;;;;;4953409;29;20062;-76
2021/07/28 07:25:58;;;;;;;16.73;12.20;;;17.60;99.90;;;;;;4953296;29;20038;-76
2021/07/28 07:28:25;;;;;;;15.68;12.85;;;17.70;99.90;;;;;;4953893;28;20050;-75
2021/07/28 07:30:51;;;;;;;16.95;13.65;;;17.70;99.90;;;;;;4954544;28;20543;-76
2021/07/28 07:36:03;;;;;;;17.52;15.15;;;17.80;99.90;;;;;;4948712;28;20035;-76
2021/07/28 07:38:29;;;;;;;15.90;14.30;;;18.20;99.90;;;;;;4943312;29;20043;-76
2021/07/28 07:40:55;;;;;;;17.83;15.45;;;18.40;99.90;;;;;;4954072;28;20043;-76
2021/07/28 07:43:21;;;;;;;16.17;14.48;;;18.50;99.90;;;;;;4953881;29;20030;-75
2021/07/28 07:45:48;;;;;;;19.40;14.52;;;18.60;99.90;;;;;;4954155;29;20078;-75
2021/07/28 07:48:14;;;;;;;13.57;12.18;;;18.70;99.90;;;;;;4953677;28;20047;-75
2021/07/28 07:50:40;;;;;;;14.50;12.95;;;18.50;99.90;;;;;;4954458;28;20054;-75
2021/07/28 07:53:06;;;;;;;16.48;12.68;;;18.70;99.90;;;;;;4952570;29;20039;-76
2021/07/28 07:55:34;;;;;;;14.52;12.65;;;18.80;99.90;;;;;;4954466;29;20027;-76
2021/07/28 07:58:00;;;;;;;13.40;11.60;;;19.00;99.90;;;;;;4953795;29;20043;-76
2021/07/28 08:00:26;;;;;;;18.90;12.27;;;19.20;99.90;;;;;;4953284;29;20046;-76
2021/07/28 08:02:53;;;;;;;13.57;10.57;;;19.00;99.90;;;;;;4954159;29;20040;-74
2021/07/28 08:05:19;;;;;;;11.38;10.18;;;18.80;99.90;;;;;;4952339;29;20359;-75
2021/07/28 08:07:45;;;;;;;12.90;9.75;;;19.10;99.90;;;;;;4953973;28;20047;-75
2021/07/28 08:10:12;;;;;;;13.27;9.85;;;19.20;99.90;;;;;;4953089;29;20047;-75
2021/07/28 08:12:38;;;;;;;12.32;10.15;;;19.00;99.90;;;;;;4953785;28;20109;-75
2021/07/28 08:15:05;;;;;;;11.68;10.48;;;19.20;99.90;;;;;;4953619;29;20031;-76
2021/07/28 08:17:32;;;;;;;12.25;10.77;;;19.40;99.90;;;;;;4953039;29;20027;-76
2021/07/28 08:20:00;;;;;;;9.82;8.77;;;19.60;99.90;;;;;;4953741;29;20039;-76
2021/07/28 08:22:27;;;;;;;11.20;9.85;;;19.60;99.90;;;;;;4952069;29;20028;-76
2021/07/28 08:24:54;;;;;;;9.82;8.80;;;20.00;99.90;;;;;;4953830;28;20473;-76
2021/07/28 08:27:22;;;;;;;13.10;8.85;;;20.20;99.90;;;;;;4952692;28;20023;-76
2021/07/28 08:29:48;;;;;;;17.10;10.38;;;20.60;99.90;;;;;;4953567;29;20039;-75
2021/07/28 08:32:14;;;;;;;10.45;9.27;;;20.80;99.90;;;;;;4949527;29;20394;-75
2021/07/28 08:34:41;;;;;;;10.43;9.43;;;20.70;99.90;;;;;;4955079;28;20146;-75
2021/07/28 08:37:07;;;;;;;10.02;8.20;;;20.90;99.90;;;;;;4951289;28;20043;-74
2021/07/28 08:39:34;;;;;;;8.68;7.80;;;21.10;99.90;;;;;;4952514;28;20054;-74
2021/07/28 08:42:05;;;;;;;9.98;8.20;;;20.80;99.90;;;;;;4953198;29;20516;-74
2021/07/28 08:44:37;;;;;;;9.90;7.97;;;20.80;99.90;;;;;;4951592;29;20050;-75
2021/07/28 08:47:04;;;;;;;8.82;7.93;;;20.70;99.90;;;;;;4958027;28;20030;-74
2021/07/28 08:49:32;;;;;;;8.57;7.72;;;20.70;99.90;;;;;;4952481;29;20047;-74
2021/07/28 08:51:59;;;;;;;11.50;8.45;;;20.90;99.90;;;;;;4952915;28;20496;-73
2021/07/28 08:54:25;;;;;;;10.85;7.80;;;20.80;99.90;;;;;;4967383;28;20147;-74
2021/07/28 08:56:54;;;;;;;10.95;8.85;;;20.80;99.90;;;;;;4951811;29;20031;-74
2021/07/28 08:59:28;;;;;;;9.00;8.07;;;21.00;99.90;;;;;;4952426;29;20377;-74
2021/07/28 09:01:56;;;;;;;8.00;7.20;;;21.00;99.90;;;;;;4934890;29;20035;-72
2021/07/28 09:04:23;;;;;;;11.05;8.30;;;21.30;99.90;;;;;;4948280;29;20058;-74
2021/07/28 09:06:49;;;;;;;8.10;7.13;;;21.80;99.90;;;;;;4953648;28;20393;-75
2021/07/28 09:09:16;;;;;;;11.30;8.15;;;21.90;99.90;;;;;;4952607;28;20054;-75
2021/07/28 09:11:54;;;;;;;8.90;7.18;;;21.60;99.90;;;;;;4941052;29;20035;-74
2021/07/28 09:14:23;;;;;;;12.27;7.85;;;21.50;99.90;;;;;;4951156;29;20035;-75
2021/07/28 09:16:51;;;;;;;7.88;7.07;;;21.50;99.90;;;;;;4952905;29;20039;-75
2021/07/28 09:19:46;;;;;;;10.80;7.25;;;21.60;99.90;;;;;;4953103;29;20035;-75
2021/07/28 09:22:14;;;;;;;7.28;6.15;;;21.80;99.90;;;;;;4938730;28;20050;-75
2021/07/28 09:24:43;;;;;;;8.43;7.55;;;22.20;98.80;;;;;;4952779;29;20031;-75
2021/07/28 09:27:40;;;;;;;8.93;7.07;;;21.70;99.00;;;;;;4950891;29;20040;-75
2021/07/28 09:30:07;;;;;;;9.35;7.32;;;21.70;99.20;;;;;;4945754;29;20043;-74
2021/07/28 09:32:35;;;;;;;10.30;7.88;;;21.90;99.30;;;;;;4951489;29;20035;-74
2021/07/28 09:35:01;;;;;;;8.05;7.05;;;22.40;99.00;;;;;;4952233;29;20055;-75
2021/07/28 09:37:37;;;;;;;6.85;5.57;;;23.00;97.10;;;;;;4952408;28;20608;-74
2021/07/28 09:40:04;;;;;;;11.18;7.60;;;23.50;96.00;;;;;;4952286;29;20066;-74
2021/07/28 09:42:30;;;;;;;7.57;6.78;;;23.40;95.00;;;;;;4950436;29;20028;-74
2021/07/28 09:44:59;;;;;;;8.52;7.18;;;22.40;95.60;;;;;;4941629;29;20027;-75
2021/07/28 09:47:37;;;;;;;10.00;7.70;;;22.30;96.80;;;;;;4952262;29;20032;-75
2021/07/28 09:50:03;;;;;;;8.05;6.55;;;22.70;94.80;;;;;;4952956;29;20031;-75
2021/07/28 09:52:34;;;;;;;7.32;6.55;;;22.60;94.90;;;;;;4953608;29;20039;-74
2021/07/28 09:55:30;;;;;;;10.07;6.72;;;22.90;94.50;;;;;;4952232;29;20326;-74
2021/07/28 09:57:59;;;;;;;8.05;6.75;;;23.20;93.40;;;;;;4943997;28;20055;-74
2021/07/28 10:00:27;;;;;;;8.40;6.63;;;23.10;94.20;;;;;;4955582;29;20489;-74
2021/07/28 10:03:00;;;;;;;7.35;6.63;;;23.00;93.70;;;;;;4956264;29;20050;-74
2021/07/28 10:05:28;;;;;;;9.10;6.50;;;23.00;93.20;;;;;;4954954;29;20031;-73
2021/07/28 10:08:00;;;;;;;8.50;6.75;;;22.70;93.80;;;;;;4956832;28;20043;-73
2021/07/28 10:10:29;;;;;;;11.38;7.25;;;22.60;94.70;;;;;;4954877;29;20050;-73
2021/07/28 10:12:55;;;;;;;8.40;6.50;;;22.50;94.30;;;;;;4955031;29;20042;-74
2021/07/28 10:15:21;;;;;;;8.65;6.30;;;22.60;94.70;;;;;;4955916;29;20023;-73
2021/07/28 10:17:50;;;;;;;8.73;6.20;;;22.90;94.60;;;;;;4954979;29;20027;-73
2021/07/28 10:20:17;;;;;;;7.47;5.78;;;23.70;91.70;;;;;;4955841;29;20035;-74
2021/07/28 10:22:43;;;;;;;7.00;6.30;;;23.70;90.50;;;;;;4956333;29;20046;-74
2021/07/28 10:25:14;;;;;;;8.80;6.15;;;23.80;89.00;;;;;;4955503;29;20058;-74
2021/07/28 10:27:46;;;;;;;8.18;6.15;;;23.70;90.00;;;;;;4955917;29;20038;-74
2021/07/28 10:30:14;;;;;;;7.40;6.00;;;23.70;90.40;;;;;;4955266;28;20066;-74
2021/07/28 10:32:42;;;;;;;8.90;6.45;;;23.60;89.00;;;;;;4955795;29;20484;-74
2021/07/28 10:35:24;;;;;;;6.90;6.30;;;24.00;90.80;;;;;;4955846;29;20046;-74
2021/07/28 10:37:53;;;;;;;10.95;6.65;;;24.10;89.40;;;;;;4971162;28;20051;-74
2021/07/28 10:40:29;;;;;;;6.70;5.97;;;24.50;89.40;;;;;;4955420;28;20047;-74
2021/07/28 10:42:55;;;;;;;9.30;6.85;;;24.90;87.10;;;;;;4954920;28;20043;-74
2021/07/28 10:45:23;;;;;;;8.63;6.18;;;24.60;86.80;;;;;;4956274;29;20031;-74
2021/07/28 10:47:53;;;;;;;7.30;6.10;;;24.40;87.90;;;;;;4955188;29;20465;-74
2021/07/28 10:50:22;;;;;;;7.40;5.55;;;24.20;86.80;;;;;;4937370;29;20496;-74
2021/07/28 10:52:50;;;;;;;7.03;5.33;;;24.30;86.30;;;;;;4953287;29;20038;-75
2021/07/28 10:55:19;;;;;;;7.55;5.60;;;24.10;85.50;;;;;;4955367;29;20039;-74
2021/07/28 10:57:48;;;;;;;6.65;5.78;;;23.90;85.70;;;;;;4945941;29;20461;-73
2021/07/28 11:00:39;;;;;;;6.50;5.50;;;23.90;86.00;;;;;;4946638;29;20042;-74
2021/07/28 11:03:09;;;;;;;6.72;5.63;;;24.00;86.10;;;;;;4937494;29;20039;-75
2021/07/28 11:05:42;;;;;;;7.22;6.03;;;24.10;86.40;;;;;;4953974;28;20043;-75
2021/07/28 11:08:10;;;;;;;8.52;5.78;;;24.60;84.50;;;;;;4937100;29;20358;-75
2021/07/28 11:10:40;;;;;;;7.13;6.22;;;24.60;82.30;;;;;;4951930;28;20047;-75
2021/07/28 11:13:10;;;;;;;;;;;24.60;84.20;;;;;;4941516;28;20047;-75
2021/07/28 11:15:37;;;;;;;;;;;24.60;82.90;;;;;;4956883;28;19910;-75
2021/07/28 11:18:04;;;;;;;7.28;5.78;;;24.70;81.10;;;;;;4955754;29;19910;-75
2021/07/28 11:20:39;;;;;;;6.45;5.85;;;25.10;84.30;;;;;;4957098;29;20035;-75
2021/07/28 11:23:24;;;;;;;9.48;5.75;;;25.50;81.00;;;;;;4956691;29;20051;-75
2021/07/28 11:25:55;;;;;;;9.98;6.18;;;25.00;80.30;;;;;;4971596;28;20401;-75
2021/07/28 11:28:22;;;;;;;7.38;6.00;;;24.80;81.70;;;;;;4955908;29;20042;-74
2021/07/28 11:30:54;;;;;;;5.65;5.07;;;24.60;80.40;;;;;;4954982;29;20047;-75
2021/07/28 11:33:21;;;;;;;6.28;5.68;;;24.50;81.00;;;;;;4954116;28;20043;-75
2021/07/28 11:35:50;;;;;;;6.20;5.35;;;24.60;80.50;;;;;;4954768;28;20048;-75
2021/07/28 11:38:18;;;;;;;7.05;4.93;;;24.50;80.50;;;;;;4954079;29;20489;-75
2021/07/28 11:40:49;;;;;;;6.03;4.82;;;24.40;80.30;;;;;;4953198;28;20381;-74
2021/07/28 11:43:33;;;;;;;7.05;5.57;;;24.30;81.40;;;;;;4954810;29;20347;-74
2021/07/28 11:46:05;;;;;;;5.43;4.90;;;24.60;79.90;;;;;;4937234;28;20470;-74
2021/07/28 11:48:33;;;;;;;8.07;4.72;;;25.00;79.40;;;;;;4946654;29;20043;-74
2021/07/28 11:51:04;;;;;;;7.35;4.82;;;25.00;79.00;;;;;;4953360;29;20043;-74
2021/07/28 11:53:32;;;;;;;7.22;4.88;;;24.80;77.90;;;;;;4954095;29;20280;-75
2021/07/28 11:56:15;;;;;;;7.97;4.93;;;25.00;78.70;;;;;;4954443;29;20458;-74
2021/07/28 11:58:52;;;;;;;8.18;5.45;;;24.90;76.60;;;;;;4944691;29;20048;-74
2021/07/28 12:01:24;;;;;;;6.03;4.93;;;24.70;77.50;;;;;;4950371;29;20477;-74
2021/07/28 12:03:56;;;;;;;7.40;4.10;;;25.20;77.30;;;;;;4943821;29;20040;-75
2021/07/28 12:06:38;;;;;;;6.40;4.38;;;25.50;76.00;;;;;;4949756;29;20432;-74
2021/07/28 12:09:10;;;;;;;5.55;4.68;;;25.60;74.30;;;;;;4953323;29;20027;-74
2021/07/28 12:11:51;;;;;;;7.72;4.40;;;25.80;75.60;;;;;;4954208;29;20047;-74
2021/07/28 12:14:24;;;;;;;6.38;4.07;;;26.10;74.10;;;;;;4953676;29;20027;-75
2021/07/28 12:16:51;;;;;;;6.20;4.10;;;25.70;72.70;;;;;;4954281;29;20031;-75
2021/07/28 12:19:29;;;;;;;5.78;4.20;;;25.80;73.20;;;;;;4954184;29;20035;-76
2021/07/28 12:22:12;;;;;;;4.35;3.70;;;25.90;70.60;;;;;;4945997;28;20048;-76
2021/07/28 12:24:42;;;;;;;7.10;4.35;;;25.90;71.70;;;;;;4964384;28;20489;-75
2021/07/28 12:27:30;;;;;;;6.05;4.15;;;25.60;71.50;;;;;;4953978;29;20386;-74
2021/07/28 12:30:00;;;;;;;5.35;3.67;;;25.90;70.40;;;;;;4953800;29;20058;-74
2021/07/28 12:32:41;;;;;;;5.78;3.35;;;25.90;70.60;;;;;;4953533;29;20362;-73
2021/07/28 12:35:27;;;;;;;4.43;3.38;;;25.70;68.60;;;;;;4943338;29;20031;-75
2021/07/28 12:38:12;;;;;;;7.05;3.95;;;25.30;69.50;;;;;;4950724;29;20035;-74
2021/07/28 12:40:46;;;;;;;5.80;3.05;;;25.70;69.90;;;;;;4953296;29;20043;-73
2021/07/28 12:43:13;;;;;;;3.13;2.80;;;26.40;68.50;;;;;;4952179;29;20047;-75
2021/07/28 12:45:39;;;;;;;4.22;3.47;;;26.60;65.00;;;;;;4953122;29;20031;-75